Covington, GA (30015)

11:06 AM EDT on August 25, 2016 (GMT -0400)
Cooper Family - Covington, GA | | Change Station

Elev 820 ft 33.59 °N, 83.84 °W | Updated 8 minutes ago

Overcast
Overcast
81.5 °F
Feels Like 87 °F
N
0.0
Wind Variable Wind from NW
Gusts 1.0 mph

Today
High -- | Low -- °F
--% Chance of Precip.
Yesterday
High -- | Low -- °F
Precip. -- in
Pressure 30.22 in
Visibility 10.0 miles
Clouds Clear
Heat Index 87 °F
Dew Point 73 °F
Humidity 76%
Rainfall 0.00 in
Snow Depth Not available.
7:04 AM 8:09 PM
Last Quarter, 45% visible
METAR KCVC 251454Z AUTO 29005KT 10SM -RA CLR 29/22 A3022 RMK AO2
Pressure 30.22 in
Visibility 10.0 miles
Clouds Clear
Heat Index 87 °F
Dew Point 73 °F
Humidity 76%
Rainfall 0.00 in
Snow Depth Not available.
7:04 AM 8:09 PM
Last Quarter, 45% visible
METAR KCVC 251454Z AUTO 29005KT 10SM -RA CLR 29/22 A3022 RMK AO2

10-Day Weather Forecast

Almanac

Astronomy

Aug. 25, 2016 Rise Set
Actual Time
Civil Twilight
Nautical Twilight
Astronomical Twilight
Moon
Length of Visible Light
Length of Day
Tomorrow will be .
, % of the Moon is Illuminated

Today's Extremes

State Highs State Lows

Community

WunderPhotos

Upload Photos

1,934,854 photos uploaded!

WunderBlog® & News

Nearby

Air Quality

  Air Quality AQ Index Pollutant
Not available.

Snow Depth

Station Depth Elevation

Earthquake Activity

City Distance Mag. Time & Date
Minimum magnitude displayed is 2.5.

Coastal Water Temperatures

Place Temperature

Stations

Nearby Weather Stations

Station Location Temp. Windchill Dew Point Humidity Wind Precip. Elev Updated Type
                   

Watches & Warnings

There are currently no watches in effect.